Time;durP1;ratioP1;P1;durP2;ratioP2;P2;SDS_P1;SDS_P2;PMS_P1;PMS_P2;Temp;Humidity;BMP_temperature;BMP_pressure;BME280_temperature;BME280_humidity;BME280_pressure;Samples;Min_cycle;Max_cycle;Signal;HPM_P1;HPM_P2
2023/03/10 00:11:56;;;;;;;44.13;24.55;;;;;;;3.40;78.23;98356.31;30617314;28;97433;-63
2023/03/10 00:26:56;;;;;;;44.35;25.25;;;;;;;3.18;77.79;98342.88;30615878;28;97446;-63
2023/03/10 00:41:57;;;;;;;40.30;21.67;;;;;;;2.88;78.80;98321.56;30614439;28;96773;-63
2023/03/10 00:56:58;;;;;;;37.85;20.52;;;;;;;3.03;79.23;98295.41;30614310;28;96633;-63
2023/03/10 01:11:58;;;;;;;39.83;22.27;;;;;;;2.69;78.96;98267.53;30611745;28;96650;-63
2023/03/10 01:26:58;;;;;;;38.78;20.77;;;;;;;2.41;79.02;98253.13;30610951;28;96830;-62
2023/03/10 01:41:59;;;;;;;40.10;21.48;;;;;;;2.24;79.83;98226.00;30609877;28;97930;-64
2023/03/10 01:57:00;;;;;;;44.70;24.63;;;;;;;2.19;80.24;98190.53;30608825;28;97501;-62
2023/03/10 02:12:02;;;;;;;28.30;15.68;;;;;;;2.69;82.12;98187.81;30609906;28;96982;-64
2023/03/10 02:27:13;;;;;;;29.23;16.33;;;;;;;3.26;82.29;98155.19;30627209;28;96574;-63
2023/03/10 02:42:14;;;;;;;11.25;7.35;;;;;;;4.31;83.07;98142.38;30625202;28;96654;-62
2023/03/10 02:57:14;;;;;;;5.72;3.83;;;;;;;5.41;82.37;98120.41;30624185;28;96680;-62
2023/03/10 03:12:14;;;;;;;6.00;3.17;;;;;;;6.04;81.02;98089.84;30622776;28;97270;-64
2023/03/10 03:27:15;;;;;;;3.72;2.70;;;;;;;6.38;80.24;98073.19;30621281;28;98635;-64
2023/03/10 03:42:15;;;;;;;7.20;2.70;;;;;;;6.44;79.67;98042.50;30619566;28;96474;-64
2023/03/10 03:57:16;;;;;;;6.60;2.42;;;;;;;6.60;78.70;98028.94;30618134;28;97537;-64
2023/03/10 04:12:16;;;;;;;4.18;1.63;;;;;;;6.99;78.63;98005.44;30617168;28;97405;-64
2023/03/10 04:27:17;;;;;;;5.70;1.55;;;;;;;7.39;77.55;98000.16;30614865;28;97196;-64
2023/03/10 04:42:17;;;;;;;3.75;1.52;;;;;;;7.54;76.47;97984.06;30611647;28;96984;-63
2023/03/10 04:57:18;;;;;;;4.97;1.58;;;;;;;7.57;75.82;97957.19;30611117;28;96943;-63
2023/03/10 05:12:18;;;;;;;3.13;1.35;;;;;;;7.51;75.35;97955.34;30610258;28;97914;-63
2023/03/10 05:27:20;;;;;;;4.25;2.47;;;;;;;7.49;74.80;97941.50;30608948;28;96815;-64
2023/03/10 05:42:21;;;;;;;8.70;1.87;;;;;;;7.56;74.35;97954.72;30607146;28;98325;-63
2023/03/10 05:57:21;;;;;;;4.68;1.58;;;;;;;7.61;73.79;97931.06;30623172;28;96924;-64
2023/03/10 06:12:22;;;;;;;3.75;1.52;;;;;;;7.74;74.10;97899.25;30624825;28;96782;-63
2023/03/10 06:27:22;;;;;;;4.85;1.70;;;;;;;7.83;73.32;97885.75;30623821;28;97231;-63
2023/03/10 06:42:23;;;;;;;3.92;1.70;;;;;;;7.90;73.12;97870.66;30619785;28;96841;-64
2023/03/10 06:57:23;;;;;;;4.88;1.70;;;;;;;7.87;72.82;97876.38;30619105;28;96588;-63
2023/03/10 07:12:24;;;;;;;5.80;1.98;;;;;;;7.86;72.89;97883.53;30619035;28;96652;-64
2023/03/10 07:27:24;;;;;;;5.43;2.25;;;;;;;8.25;72.82;97868.44;30619130;28;97577;-64
2023/03/10 07:42:24;;;;;;;9.27;3.33;;;;;;;8.99;71.89;97844.09;30614820;28;96735;-64
2023/03/10 07:57:27;;;;;;;6.20;2.20;;;;;;;9.34;71.16;97846.22;30614146;28;96673;-64
2023/03/10 08:12:27;;;;;;;8.37;3.20;;;;;;;9.38;69.99;97858.03;30613675;28;96666;-64
2023/03/10 08:27:28;;;;;;;7.65;2.38;;;;;;;9.58;69.20;97865.81;30613289;28;96711;-63
2023/03/10 08:42:29;;;;;;;3.73;1.77;;;;;;;9.91;68.02;97877.09;30608922;28;96716;-64
2023/03/10 08:57:30;;;;;;;6.15;2.08;;;;;;;10.21;67.39;97868.34;30608709;28;96746;-64
2023/03/10 09:12:31;;;;;;;5.07;1.83;;;;;;;10.83;65.52;97863.59;30608752;28;96716;-64
2023/03/10 09:27:31;;;;;;;2.28;0.82;;;;;;;11.35;62.95;97889.59;30619936;28;96836;-65
2023/03/10 09:42:52;;;;;;;3.45;1.15;;;;;;;11.31;61.62;97856.44;30628531;28;96778;-64
2023/03/10 09:57:55;;;;;;;3.83;1.27;;;;;;;11.14;61.18;97840.34;30626574;28;96849;-64
2023/03/10 10:13:06;;;;;;;2.20;1.10;;;;;;;11.40;60.50;97843.59;30624755;28;96641;-64
2023/03/10 10:28:18;;;;;;;5.87;1.40;;;;;;;11.88;59.21;97846.16;30624430;28;96869;-64
2023/03/10 10:43:20;;;;;;;2.50;0.80;;;;;;;11.99;58.36;97861.38;30621603;28;96688;-63
2023/03/10 10:58:28;;;;;;;3.50;1.07;;;;;;;13.20;57.25;97825.53;30622613;28;97334;-64
2023/03/10 11:13:46;;;;;;;5.60;1.17;;;;;;;14.31;51.80;97795.28;30621088;28;97065;-63
2023/03/10 11:29:03;;;;;;;3.57;1.20;;;;;;;13.82;53.08;97801.44;30619382;28;97480;-63
2023/03/10 11:44:10;;;;;;;2.33;1.03;;;;;;;13.20;53.32;97796.13;30615609;28;97225;-63
2023/03/10 11:59:19;;;;;;;4.17;1.60;;;;;;;12.76;54.18;97787.97;30616060;28;97602;-63
2023/03/10 12:14:20;;;;;;;3.73;1.20;;;;;;;13.47;53.43;97778.56;30614406;28;96804;-63
2023/03/10 12:29:20;;;;;;;4.77;2.23;;;;;;;14.79;50.77;97755.25;30612738;28;96877;-63
2023/03/10 12:44:22;;;;;;;11.13;3.30;;;;;;;17.56;46.89;97738.78;30610207;28;98490;-63
2023/03/10 12:59:28;;;;;;;17.85;4.90;;;;;;;15.56;47.56;97731.53;30609112;28;97460;-64
2023/03/10 13:14:35;;;;;;;3.37;1.10;;;;;;;15.10;49.32;97742.06;30609534;28;97456;-62
2023/03/10 13:29:36;;;;;;;2.77;1.20;;;;;;;14.50;49.43;97748.34;30607470;28;96697;-63
2023/03/10 13:44:39;;;;;;;3.28;1.25;;;;;;;14.39;49.51;97735.91;30605909;28;97293;-63
2023/03/10 13:59:40;;;;;;;5.10;1.80;;;;;;;16.84;45.08;97728.22;30605184;28;98474;-63
2023/03/10 14:14:41;;;;;;;4.53;1.50;;;;;;;14.96;48.09;97733.66;30616415;28;97608;-63
2023/03/10 14:29:48;;;;;;;6.15;2.83;;;;;;;14.37;48.99;97717.41;30624085;28;97074;-62
2023/03/10 14:44:49;;;;;;;13.80;3.40;;;;;;;14.25;50.24;97705.25;30620743;28;96817;-62
2023/03/10 14:59:50;;;;;;;3.15;1.63;;;;;;;14.10;49.97;97688.00;30621382;28;97221;-62
2023/03/10 15:14:52;;;;;;;5.93;1.80;;;;;;;13.88;50.77;97675.47;30619584;28;96741;-63
2023/03/10 15:29:53;;;;;;;3.50;1.90;;;;;;;13.43;51.76;97662.47;30616908;28;97264;-63
2023/03/10 15:44:53;;;;;;;6.45;1.75;;;;;;;12.80;52.74;97628.81;30615755;28;96638;-64
2023/03/10 15:59:54;;;;;;;3.58;1.50;;;;;;;12.51;53.56;97626.28;30615413;28;97443;-63
2023/03/10 16:14:54;;;;;;;8.68;2.10;;;;;;;12.29;54.13;97628.13;30614039;28;97306;-63
2023/03/10 16:29:54;;;;;;;4.80;1.83;;;;;;;12.03;54.59;97622.38;30611446;28;96643;-63
2023/03/10 16:44:55;;;;;;;7.88;2.38;;;;;;;11.88;55.18;97619.41;30609723;28;96804;-63
2023/03/10 16:59:56;;;;;;;4.80;2.25;;;;;;;11.47;56.08;97601.69;30609546;28;96862;-64
2023/03/10 17:14:56;;;;;;;4.85;2.22;;;;;;;11.21;57.19;97603.06;30610377;28;96732;-63
2023/03/10 17:29:57;;;;;;;3.65;1.42;;;;;;;11.34;57.37;97631.28;30607154;28;97756;-63
2023/03/10 17:45:02;;;;;;;5.00;2.13;;;;;;;10.90;58.42;97622.97;30613863;28;97153;-63
2023/03/10 18:00:04;;;;;;;4.50;1.30;;;;;;;10.12;59.98;97578.69;30627923;28;97538;-63
2023/03/10 18:15:05;;;;;;;7.20;2.17;;;;;;;9.87;61.33;97589.56;30624634;28;96638;-63
2023/03/10 18:30:06;;;;;;;4.15;2.33;;;;;;;9.45;62.34;97584.28;30623920;28;96709;-64
2023/03/10 18:45:08;;;;;;;3.43;1.07;;;;;;;9.44;61.46;97595.94;30623409;28;96652;-64
2023/03/10 19:00:15;;;;;;;2.60;1.60;;;;;;;9.25;60.66;97584.53;30621989;28;96708;-64
2023/03/10 19:15:16;;;;;;;3.87;1.53;;;;;;;8.88;60.80;97596.03;30621435;28;96796;-63
2023/03/10 19:30:21;;;;;;;6.07;2.13;;;;;;;8.59;61.44;97587.00;30619798;28;96663;-62
2023/03/10 19:45:21;;;;;;;4.00;1.73;;;;;;;8.65;61.72;97578.13;30617035;28;97252;-64
2023/03/10 20:00:26;;;;;;;6.15;1.90;;;;;;;8.43;62.51;97573.25;30617005;28;96671;-63
2023/03/10 20:15:26;;;;;;;3.90;1.50;;;;;;;8.23;63.02;97546.09;30614984;28;96722;-62
2023/03/10 20:30:29;;;;;;;3.88;1.88;;;;;;;8.10;63.94;97547.88;30614455;28;96651;-62
2023/03/10 20:45:30;;;;;;;5.70;2.03;;;;;;;8.05;63.99;97538.94;30612716;28;96634;-64
2023/03/10 21:00:30;;;;;;;4.40;2.13;;;;;;;7.93;65.70;97547.63;30611113;28;96836;-63
2023/03/10 21:15:31;;;;;;;9.60;2.90;;;;;;;7.99;66.31;97535.34;30610298;28;96995;-63
2023/03/10 21:30:32;;;;;;;3.80;1.33;;;;;;;8.21;66.11;97517.16;30631216;28;96777;-65
2023/03/10 21:45:36;;;;;;;2.13;0.90;;;;;;;8.23;66.35;97514.28;30630627;28;97495;-64
2023/03/10 22:00:36;;;;;;;3.53;1.70;;;;;;;8.26;66.35;97509.34;30629387;28;96720;-63
2023/03/10 22:15:37;;;;;;;2.63;1.38;;;;;;;8.17;67.13;97489.47;30627699;28;96939;-64
2023/03/10 22:30:38;;;;;;;4.20;1.77;;;;;;;8.01;67.09;97477.63;30625600;28;96638;-64
2023/03/10 22:45:40;;;;;;;5.87;1.93;;;;;;;7.94;68.02;97474.19;30625481;28;96664;-63
2023/03/10 23:00:43;;;;;;;3.87;1.77;;;;;;;7.94;68.07;97469.72;30624946;28;97309;-63
2023/03/10 23:15:44;;;;;;;3.33;1.73;;;;;;;7.95;68.57;97462.56;30623393;28;97704;-63
2023/03/10 23:30:47;;;;;;;3.37;1.33;;;;;;;8.02;68.71;97452.69;30621762;28;97280;-63
2023/03/10 23:45:47;;;;;;;3.33;1.73;;;;;;;8.10;68.98;97451.59;30619587;28;97671;-64
